Time;durP1;ratioP1;P1;durP2;ratioP2;P2;SDS_P1;SDS_P2;PMS_P1;PMS_P2;Temp;Humidity;BMP_temperature;BMP_pressure;BME280_temperature;BME280_humidity;BME280_pressure;Samples;Min_cycle;Max_cycle;Signal;HPM_P1;HPM_P2
2022/08/24 00:01:28;;;;;;;3.15;2.25;;;;;;;17.63;86.28;95580.08;1784689;80;21035;-71
2022/08/24 00:03:56;;;;;;;11.65;2.60;;;;;;;17.65;86.05;95581.73;1784992;80;20979;-71
2022/08/24 00:06:25;;;;;;;8.03;2.10;;;;;;;17.67;86.05;95585.67;1784677;80;21504;-70
2022/08/24 00:08:53;;;;;;;7.53;2.40;;;;;;;17.63;85.43;95594.75;1785083;80;21491;-71
2022/08/24 00:11:21;;;;;;;2.35;2.05;;;;;;;17.59;85.33;95607.38;1784556;80;21038;-71
2022/08/24 00:13:48;;;;;;;4.53;2.37;;;;;;;17.49;85.03;95613.59;1784924;80;21022;-71
2022/08/24 00:16:16;;;;;;;7.78;2.45;;;;;;;17.49;85.24;95616.73;1784956;80;20986;-71
2022/08/24 00:18:44;;;;;;;6.05;2.00;;;;;;;17.42;85.16;95615.28;1784910;80;21007;-71
2022/08/24 00:21:11;;;;;;;6.40;2.20;;;;;;;17.46;85.94;95619.52;1784928;80;21433;-71
2022/08/24 00:23:39;;;;;;;7.42;2.72;;;;;;;17.50;86.05;95623.80;1784665;80;21312;-71
2022/08/24 00:26:06;;;;;;;6.67;2.10;;;;;;;17.51;86.26;95621.06;1785047;80;20963;-71
2022/08/24 00:28:34;;;;;;;7.80;2.45;;;;;;;17.51;86.10;95627.73;1784976;80;20984;-71
2022/08/24 00:31:02;;;;;;;7.87;2.42;;;;;;;17.51;86.11;95626.41;1785202;80;20971;-71
2022/08/24 00:33:29;;;;;;;5.30;2.20;;;;;;;17.54;85.78;95630.73;1784917;80;21026;-71
2022/08/24 00:35:56;;;;;;;3.90;1.98;;;;;;;17.50;85.54;95634.46;1784507;80;21063;-71
2022/08/24 00:38:23;;;;;;;9.75;3.35;;;;;;;17.50;85.74;95627.80;1785062;80;20987;-71
2022/08/24 00:40:51;;;;;;;7.85;2.50;;;;;;;17.49;85.85;95633.60;1784761;80;20979;-71
2022/08/24 00:43:24;;;;;;;6.70;2.10;;;;;;;17.46;85.69;95626.19;1783805;80;21014;-71
2022/08/24 00:46:18;;;;;;;4.85;2.20;;;;;;;17.42;85.46;95624.14;1779324;81;21022;-71
2022/08/24 00:48:48;;;;;;;4.67;2.27;;;;;;;17.44;85.79;95624.08;1778951;81;21488;-71
2022/08/24 00:51:23;;;;;;;10.45;2.30;;;;;;;17.37;85.49;95619.95;1779137;80;21011;-71
2022/08/24 00:53:56;;;;;;;8.43;1.85;;;;;;;17.30;85.43;95626.87;1778742;81;20976;-71
2022/08/24 00:56:27;;;;;;;8.48;2.33;;;;;;;17.26;85.89;95635.97;1779525;80;21504;-71
2022/08/24 00:59:12;;;;;;;10.65;2.60;;;;;;;17.22;86.67;95638.36;1779363;81;21028;-71
2022/08/24 01:01:39;;;;;;;6.37;2.42;;;;;;;17.22;87.08;95639.69;1779339;80;21014;-71
2022/08/24 01:04:14;;;;;;;4.25;2.42;;;;;;;17.24;87.34;95643.64;1779349;81;21102;-70
2022/08/24 01:06:42;;;;;;;7.67;2.00;;;;;;;17.22;87.24;95643.69;1779048;80;21059;-71
2022/08/24 01:09:08;;;;;;;4.28;2.27;;;;;;;17.20;86.75;95638.02;1751187;81;20996;-71
2022/08/24 01:11:35;;;;;;;8.53;2.20;;;;;;;17.21;86.72;95639.75;1779164;81;20999;-71
2022/08/24 01:14:04;;;;;;;9.15;2.60;;;;;;;17.21;87.21;95648.64;1779161;81;21042;-71
2022/08/24 01:19:27;;;;;;;5.80;1.95;;;;;;;17.28;87.24;95630.08;1779466;81;20975;-71
2022/08/24 01:22:09;;;;;;;7.78;2.52;;;;;;;17.26;87.37;95623.08;1779271;81;21070;-71
2022/08/24 01:24:36;;;;;;;8.65;2.22;;;;;;;17.23;87.13;95631.22;1744090;81;21059;-71
2022/08/24 01:27:07;;;;;;;7.42;2.37;;;;;;;17.29;87.18;95621.63;1779042;81;21018;-71
2022/08/24 01:29:35;;;;;;;5.50;2.20;;;;;;;17.26;87.08;95616.41;1779415;80;20979;-71
2022/08/24 01:32:02;;;;;;;5.20;2.35;;;;;;;17.27;87.65;95612.83;1779271;81;21071;-71
2022/08/24 01:34:29;;;;;;;6.40;2.60;;;;;;;17.24;87.47;95603.16;1779286;80;21015;-71
2022/08/24 01:36:59;;;;;;;7.62;2.40;;;;;;;17.31;87.83;95609.07;1779329;81;21010;-71
2022/08/24 01:39:36;;;;;;;5.25;1.90;;;;;;;17.34;87.65;95605.40;1779337;81;21557;-71
2022/08/24 01:42:04;;;;;;;3.70;2.10;;;;;;;17.33;87.18;95604.54;1779198;80;21042;-71
2022/08/24 01:44:33;;;;;;;11.57;2.58;;;;;;;17.22;86.59;95590.36;1782552;80;21034;-71
2022/08/24 01:47:03;;;;;;;3.50;2.50;;;;;;;17.21;87.20;95591.75;1785021;80;21026;-71
2022/08/24 01:49:33;;;;;;;10.03;2.30;;;;;;;17.26;87.61;95599.97;1784808;80;21469;-71
2022/08/24 01:52:01;;;;;;;8.30;2.17;;;;;;;17.29;87.58;95586.97;1785248;80;20994;-71
2022/08/24 01:54:30;;;;;;;3.75;2.05;;;;;;;17.30;87.25;95591.35;1784857;80;21476;-71
2022/08/24 01:56:57;;;;;;;2.85;2.20;;;;;;;17.30;87.09;95591.35;1758654;80;20982;-71
2022/08/24 01:59:26;;;;;;;7.87;2.55;;;;;;;17.35;87.43;95580.48;1759255;80;21015;-71
2022/08/24 02:02:07;;;;;;;6.17;2.65;;;;;;;17.34;87.00;95588.06;1784799;80;21014;-71
2022/08/24 02:04:35;;;;;;;6.65;2.45;;;;;;;17.33;87.05;95582.34;1759207;80;21114;-71
2022/08/24 02:07:01;;;;;;;3.65;2.25;;;;;;;17.35;87.15;95587.15;1784773;80;21038;-71
2022/08/24 02:09:30;;;;;;;9.70;2.77;;;;;;;17.43;87.45;95578.32;1758415;80;21058;-71
2022/08/24 02:11:59;;;;;;;5.33;2.58;;;;;;;17.40;86.72;95573.14;1785074;80;21518;-71
2022/08/24 02:14:27;;;;;;;5.17;2.50;;;;;;;17.33;86.50;95568.53;1784695;80;21520;-71
2022/08/24 02:16:55;;;;;;;7.55;3.20;;;;;;;17.31;86.98;95567.73;1784972;80;20998;-71
2022/08/24 02:19:26;;;;;;;8.90;3.50;;;;;;;17.34;87.75;95569.39;1785216;80;21049;-71
2022/08/24 02:21:53;;;;;;;8.80;3.47;;;;;;;17.32;87.34;95572.16;1784753;80;21010;-71
2022/08/24 02:24:19;;;;;;;4.47;2.60;;;;;;;17.32;87.52;95572.16;1784498;80;21079;-72
2022/08/24 02:26:48;;;;;;;2.92;2.50;;;;;;;17.32;87.53;95573.48;1784935;80;20975;-70
2022/08/24 02:29:16;;;;;;;4.10;2.55;;;;;;;17.33;87.29;95573.02;1784852;80;20983;-71
2022/08/24 02:31:44;;;;;;;10.55;2.50;;;;;;;17.32;87.41;95571.30;1784631;80;20998;-71
2022/08/24 02:34:11;;;;;;;3.33;2.30;;;;;;;17.30;87.45;95563.35;1784959;80;21000;-71
2022/08/24 02:36:40;;;;;;;8.48;3.15;;;;;;;17.32;87.53;95554.81;1784675;80;20990;-71
2022/08/24 02:39:08;;;;;;;7.47;3.30;;;;;;;17.27;87.01;95559.02;1758612;80;20987;-71
2022/08/24 02:41:36;;;;;;;9.15;4.08;;;;;;;17.21;87.07;95559.75;1784856;80;20986;-71
2022/08/24 02:44:04;;;;;;;5.75;4.10;;;;;;;17.16;87.57;95554.66;1782792;80;20994;-71
2022/08/24 02:46:32;;;;;;;4.47;3.90;;;;;;;17.17;87.64;95552.85;1779510;81;21054;-71
2022/08/24 02:49:00;;;;;;;7.45;3.70;;;;;;;17.12;87.49;95544.20;1779077;81;20987;-71
2022/08/24 02:51:30;;;;;;;6.53;3.72;;;;;;;17.13;87.78;95549.44;1778881;81;21102;-71
2022/08/24 02:54:00;;;;;;;6.30;3.40;;;;;;;17.12;87.83;95553.05;1779141;80;21145;-71
2022/08/24 02:56:29;;;;;;;5.78;3.70;;;;;;;17.18;87.76;95548.76;1779570;81;21464;-71
2022/08/24 02:58:58;;;;;;;6.30;3.70;;;;;;;17.18;87.67;95547.43;1751301;81;21473;-71
2022/08/24 03:01:28;;;;;;;5.70;3.40;;;;;;;17.16;87.61;95540.00;1778958;81;21055;-71
2022/08/24 03:03:56;;;;;;;7.78;3.10;;;;;;;17.12;87.14;95540.20;1779479;81;20971;-71
2022/08/24 03:06:23;;;;;;;6.03;2.85;;;;;;;17.11;87.46;95534.45;1779276;81;21020;-71
2022/08/24 03:08:50;;;;;;;5.47;2.70;;;;;;;17.07;87.08;95537.26;1779097;81;21031;-71
2022/08/24 03:11:17;;;;;;;4.78;2.90;;;;;;;17.03;86.81;95537.45;1751369;81;21501;-71
2022/08/24 03:13:44;;;;;;;8.58;2.80;;;;;;;16.93;86.43;95542.80;1779096;81;21573;-71
2022/08/24 03:16:11;;;;;;;6.85;2.70;;;;;;;16.87;86.85;95540.81;1779180;81;20979;-71
2022/08/24 03:18:38;;;;;;;5.35;3.22;;;;;;;16.80;86.99;95547.81;1779657;81;21484;-71
2022/08/24 03:21:05;;;;;;;5.72;3.12;;;;;;;16.78;87.47;95533.24;1779279;81;21481;-71
2022/08/24 03:23:34;;;;;;;4.15;2.85;;;;;;;16.72;87.02;95544.11;1779450;81;21042;-71
2022/08/24 03:26:02;;;;;;;6.37;2.80;;;;;;;16.71;87.62;95538.40;1751144;81;21023;-71
2022/08/24 03:28:29;;;;;;;6.62;2.52;;;;;;;16.68;87.44;95541.17;1779395;81;21007;-71
2022/08/24 03:30:56;;;;;;;6.97;3.50;;;;;;;16.73;87.99;95540.54;1779751;80;20998;-71
2022/08/24 03:33:23;;;;;;;15.38;3.70;;;;;;;16.76;87.19;95539.06;1779176;81;21065;-71
2022/08/24 03:35:50;;;;;;;7.10;3.77;;;;;;;16.70;86.77;95536.65;1779646;81;21007;-71
2022/08/24 03:38:20;;;;;;;7.95;3.60;;;;;;;16.65;86.71;95537.31;1779188;81;21100;-71
2022/08/24 03:40:47;;;;;;;10.38;3.62;;;;;;;16.61;86.65;95546.39;1779443;81;21501;-71
2022/08/24 03:46:01;;;;;;;8.38;3.40;;;;;;;16.41;87.42;95544.58;1779653;81;21038;-71
2022/08/24 03:48:30;;;;;;;13.40;3.10;;;;;;;16.40;87.90;95549.05;1779461;81;21494;-71
2022/08/24 03:50:57;;;;;;;8.58;3.22;;;;;;;16.46;88.09;95547.91;1779012;81;21008;-71
2022/08/24 03:53:24;;;;;;;8.38;2.90;;;;;;;16.48;87.85;95545.16;1779115;81;21638;-71
2022/08/24 03:55:51;;;;;;;5.03;2.22;;;;;;;16.51;88.03;95552.58;1779454;81;20983;-71
2022/08/24 03:58:18;;;;;;;3.30;1.95;;;;;;;16.58;87.78;95559.81;1779314;81;21015;-72
2022/08/24 04:00:45;;;;;;;4.65;2.08;;;;;;;16.60;87.61;95572.14;1779172;81;21098;-71
2022/08/24 04:03:13;;;;;;;3.80;2.10;;;;;;;16.56;86.99;95572.36;1779406;81;21014;-71
2022/08/24 04:05:42;;;;;;;5.05;2.17;;;;;;;16.60;87.45;95577.47;1779129;81;21548;-72
2022/08/24 04:08:09;;;;;;;4.35;2.20;;;;;;;16.62;87.02;95575.61;1779243;81;21003;-71
2022/08/24 04:10:37;;;;;;;5.12;2.25;;;;;;;16.59;86.69;95581.08;1779615;81;21034;-71
2022/08/24 04:13:05;;;;;;;6.03;2.20;;;;;;;16.62;87.00;95584.08;1751402;81;21540;-71
2022/08/24 04:15:31;;;;;;;6.03;3.00;;;;;;;16.60;87.01;95582.80;1779196;81;20975;-71
2022/08/24 04:17:58;;;;;;;26.90;15.75;;;;;;;16.58;86.95;95580.69;1779496;81;21493;-71
2022/08/24 04:20:25;;;;;;;20.02;11.60;;;;;;;16.53;87.14;95578.69;1779731;81;20991;-71
2022/08/24 04:22:51;;;;;;;12.95;7.33;;;;;;;16.60;87.54;95586.79;1779183;80;20995;-71
2022/08/24 04:25:19;;;;;;;9.88;3.65;;;;;;;16.70;87.52;95589.93;1779510;81;21007;-72
2022/08/24 04:27:46;;;;;;;5.62;2.20;;;;;;;16.77;87.52;95594.55;1779432;80;21500;-71
2022/08/24 04:30:13;;;;;;;5.28;3.25;;;;;;;16.84;87.09;95590.72;1779323;81;21050;-71
2022/08/24 04:32:42;;;;;;;2.50;2.20;;;;;;;16.83;86.21;95592.97;1776767;81;21488;-71
2022/08/24 04:35:10;;;;;;;10.10;2.40;;;;;;;16.85;86.34;95601.30;1779103;81;21050;-71
2022/08/24 04:37:36;;;;;;;3.90;2.80;;;;;;;16.85;86.07;95613.28;1779021;81;21066;-71
2022/08/24 04:40:07;;;;;;;3.80;2.30;;;;;;;16.89;86.53;95610.05;1779098;81;21031;-71
2022/08/24 04:42:36;;;;;;;4.67;2.83;;;;;;;16.85;86.06;95610.63;1778922;81;21083;-72
2022/08/24 04:45:04;;;;;;;13.85;4.80;;;;;;;16.85;86.19;95621.28;1781666;80;21595;-72
2022/08/24 04:47:31;;;;;;;8.20;2.70;;;;;;;16.92;87.05;95621.90;1784985;80;21038;-72
2022/08/24 04:49:59;;;;;;;5.33;2.60;;;;;;;16.98;87.02;95623.42;1784989;80;20999;-71
2022/08/24 04:52:27;;;;;;;10.50;5.22;;;;;;;17.10;87.56;95620.23;1785028;80;21489;-71
2022/08/24 04:54:54;;;;;;;5.17;3.80;;;;;;;17.23;87.03;95619.22;1784895;80;21042;-72
2022/08/24 04:57:22;;;;;;;11.73;3.33;;;;;;;17.28;86.48;95606.08;1784766;80;21011;-71
2022/08/24 04:59:49;;;;;;;4.22;2.92;;;;;;;17.35;86.30;95604.01;1785014;80;20987;-71
2022/08/24 05:02:16;;;;;;;4.80;2.92;;;;;;;17.43;86.06;95600.52;1785218;80;21432;-72
2022/08/24 05:04:45;;;;;;;9.60;4.17;;;;;;;17.43;85.50;95601.00;1784859;80;21054;-72
2022/08/24 05:07:12;;;;;;;9.08;4.28;;;;;;;17.50;85.47;95599.31;1784874;80;21460;-72
2022/08/24 05:09:40;;;;;;;7.08;3.80;;;;;;;17.61;85.62;95604.14;1784770;80;21063;-72
2022/08/24 05:12:07;;;;;;;6.62;3.70;;;;;;;17.74;85.88;95601.33;1784779;80;21078;-72
2022/08/24 05:14:36;;;;;;;5.55;3.35;;;;;;;17.90;86.06;95602.83;1784904;80;21011;-72
2022/08/24 05:17:04;;;;;;;3.62;2.87;;;;;;;18.04;85.67;95595.52;1784937;80;21077;-72
2022/08/24 05:19:31;;;;;;;5.58;3.27;;;;;;;18.11;84.47;95593.40;1784789;80;20987;-72
2022/08/24 05:21:58;;;;;;;6.12;2.98;;;;;;;18.07;84.03;95593.17;1784949;80;21485;-71
2022/08/24 05:24:25;;;;;;;6.37;3.08;;;;;;;18.11;83.83;95604.08;1784873;80;20999;-72
2022/08/24 05:26:52;;;;;;;3.12;2.08;;;;;;;18.24;84.39;95601.20;1784985;80;21003;-72
2022/08/24 05:29:19;;;;;;;5.50;2.50;;;;;;;18.31;83.63;95595.10;1785007;80;20943;-71
2022/08/24 05:31:49;;;;;;;3.62;2.55;;;;;;;18.36;82.56;95599.75;1784971;80;21034;-72
2022/08/24 05:34:17;;;;;;;4.37;2.90;;;;;;;18.43;83.17;95606.52;1784507;80;21050;-72
2022/08/24 05:36:45;;;;;;;5.87;3.58;;;;;;;18.55;83.52;95607.73;1784571;80;21074;-72
2022/08/24 05:39:14;;;;;;;6.47;3.15;;;;;;;18.62;83.19;95611.80;1783526;80;21019;-72
2022/08/24 05:41:45;;;;;;;5.05;3.25;;;;;;;18.74;83.56;95617.02;1785267;80;21506;-72
2022/08/24 05:44:17;;;;;;;6.50;3.87;;;;;;;18.87;83.31;95608.80;1783894;80;21600;-71
2022/08/24 05:46:44;;;;;;;4.28;2.92;;;;;;;18.95;82.83;95607.06;1784809;80;20979;-72
2022/08/24 05:49:12;;;;;;;4.90;3.22;;;;;;;18.98;82.16;95614.47;1785179;80;21050;-72
2022/08/24 05:51:41;;;;;;;6.90;3.10;;;;;;;19.02;82.40;95613.38;1784687;80;21085;-72
2022/08/24 05:54:12;;;;;;;5.05;2.77;;;;;;;19.08;82.42;95618.02;1784383;80;21011;-71
2022/08/24 05:56:47;;;;;;;4.97;2.95;;;;;;;19.11;81.68;95618.72;1752674;82;21077;-72
2022/08/24 05:59:16;;;;;;;6.50;3.55;;;;;;;19.08;81.68;95618.02;1754010;82;21054;-70
2022/08/24 06:01:43;;;;;;;4.72;2.60;;;;;;;19.13;81.98;95611.96;1753770;82;21524;-71
2022/08/24 06:04:11;;;;;;;3.37;2.62;;;;;;;19.11;81.44;95599.13;1753669;82;21030;-71
2022/08/24 06:06:38;;;;;;;5.80;3.17;;;;;;;19.12;81.21;95600.38;1767144;80;20998;-72
2022/08/24 06:09:05;;;;;;;9.00;3.62;;;;;;;19.13;81.53;95603.45;1712070;83;21026;-69
2022/08/24 06:11:36;;;;;;;8.75;3.22;;;;;;;19.17;81.72;95609.50;1700413;84;21516;-71
2022/08/24 06:14:08;;;;;;;4.20;2.70;;;;;;;19.20;81.47;95614.68;1693280;84;21007;-71
2022/08/24 06:16:40;;;;;;;8.58;3.10;;;;;;;19.27;81.46;95625.94;1716497;83;21488;-72
2022/08/24 06:19:10;;;;;;;6.62;2.90;;;;;;;19.28;81.09;95627.20;1724276;83;21035;-71
2022/08/24 06:21:37;;;;;;;4.00;2.42;;;;;;;19.33;81.11;95621.62;1724324;83;21011;-71
2022/08/24 06:24:05;;;;;;;4.67;2.85;;;;;;;19.34;80.40;95632.22;1723849;82;21039;-71
2022/08/24 06:29:20;;;;;;;5.05;3.05;;;;;;;19.35;80.51;95636.64;1724440;82;21023;-72
2022/08/24 06:31:48;;;;;;;6.95;3.40;;;;;;;19.53;80.43;95637.48;1713236;82;21023;-70
2022/08/24 06:34:18;;;;;;;5.90;2.87;;;;;;;19.70;80.62;95643.28;1708650;83;21046;-71
2022/08/24 06:36:45;;;;;;;3.87;2.95;;;;;;;19.81;80.47;95646.74;1688559;84;21042;-71
2022/08/24 06:39:13;;;;;;;7.60;3.22;;;;;;;19.87;79.08;95641.89;1708797;84;21019;-71
2022/08/24 06:41:41;;;;;;;7.80;3.42;;;;;;;19.90;78.81;95634.17;1709107;83;21530;-71
2022/08/24 06:44:10;;;;;;;6.72;3.00;;;;;;;19.94;79.27;95639.76;1709009;83;21022;-71
2022/08/24 06:46:48;;;;;;;5.37;3.00;;;;;;;19.95;78.21;95630.77;1711451;83;21015;-72
2022/08/24 06:49:16;;;;;;;6.35;3.45;;;;;;;19.95;78.73;95632.58;1713265;84;21050;-71
2022/08/24 06:51:43;;;;;;;7.17;3.30;;;;;;;19.97;78.67;95634.70;1713224;84;21050;-72
2022/08/24 06:54:10;;;;;;;6.65;3.47;;;;;;;19.91;77.91;95626.55;1713289;84;20999;-71
2022/08/24 06:56:37;;;;;;;8.53;3.20;;;;;;;19.89;78.71;95616.39;1713168;83;21066;-71
2022/08/24 06:59:05;;;;;;;5.95;3.10;;;;;;;19.97;78.72;95613.28;1713347;84;21476;-71
2022/08/24 07:01:32;;;;;;;5.12;3.25;;;;;;;20.00;78.75;95621.14;1713383;84;21023;-71
2022/08/24 07:04:00;;;;;;;7.03;2.70;;;;;;;20.06;79.41;95616.80;1712962;84;21094;-71
2022/08/24 07:06:35;;;;;;;7.40;3.30;;;;;;;20.16;79.08;95614.00;1710533;84;21150;-71
2022/08/24 07:09:03;;;;;;;7.20;3.05;;;;;;;20.26;79.19;95607.17;1713431;84;20983;-71
2022/08/24 07:11:32;;;;;;;6.80;3.10;;;;;;;20.41;78.68;95618.84;1713134;83;20985;-71
2022/08/24 07:14:00;;;;;;;5.58;3.08;;;;;;;20.52;78.58;95626.25;1713331;84;21528;-72
2022/08/24 07:16:27;;;;;;;5.80;2.90;;;;;;;20.63;77.51;95637.72;1713637;84;21508;-71
2022/08/24 07:18:56;;;;;;;4.45;3.10;;;;;;;20.68;76.87;95636.98;1712997;83;21031;-71
2022/08/24 07:21:24;;;;;;;4.58;2.67;;;;;;;20.77;76.30;95631.09;1713049;84;21118;-71
2022/08/24 07:23:57;;;;;;;5.08;2.65;;;;;;;20.92;77.04;95627.52;1713272;84;21015;-71
2022/08/24 07:26:27;;;;;;;7.70;3.40;;;;;;;21.14;77.63;95623.53;1713415;84;21083;-72
2022/08/24 07:29:03;;;;;;;6.70;2.90;;;;;;;21.17;76.42;95633.63;1713247;84;21572;-71
2022/08/24 07:31:32;;;;;;;3.42;2.75;;;;;;;21.14;76.00;95631.14;1694759;84;20991;-71
2022/08/24 07:34:02;;;;;;;5.35;3.37;;;;;;;21.16;76.48;95639.93;1712671;83;21086;-71
2022/08/24 07:36:29;;;;;;;5.55;3.00;;;;;;;21.15;76.24;95632.84;1713250;84;21019;-71
2022/08/24 07:38:56;;;;;;;3.87;3.10;;;;;;;21.14;76.25;95637.84;1713079;83;21520;-71
2022/08/24 07:41:25;;;;;;;5.90;3.12;;;;;;;21.20;76.34;95636.61;1713578;84;20987;-71
2022/08/24 07:43:53;;;;;;;7.87;3.50;;;;;;;21.32;76.25;95639.04;1713544;84;21063;-71
2022/08/24 07:46:21;;;;;;;5.75;3.33;;;;;;;21.46;75.41;95638.22;1725970;83;20999;-71
2022/08/24 07:48:50;;;;;;;5.00;3.05;;;;;;;21.55;75.30;95637.67;1705308;83;21020;-71
2022/08/24 07:51:19;;;;;;;14.07;3.60;;;;;;;21.63;74.22;95639.88;1731873;83;21524;-71
2022/08/24 07:53:46;;;;;;;6.67;3.45;;;;;;;21.69;73.99;95636.80;1731715;83;21050;-71
2022/08/24 07:56:12;;;;;;;4.53;2.60;;;;;;;21.81;74.18;95650.33;1732244;83;21563;-71
2022/08/24 07:58:41;;;;;;;7.05;3.30;;;;;;;21.99;72.98;95649.66;1704860;83;21074;-71
2022/08/24 08:01:09;;;;;;;5.80;3.20;;;;;;;22.28;73.62;95644.31;1732258;83;20998;-71
2022/08/24 08:03:36;;;;;;;5.37;3.50;;;;;;;22.43;71.79;95644.66;1731923;83;21118;-71
2022/08/24 08:06:07;;;;;;;7.60;2.85;;;;;;;22.59;72.86;95641.83;1732281;83;21022;-71
2022/08/24 08:08:37;;;;;;;5.65;2.87;;;;;;;22.76;72.28;95644.77;1732124;83;21551;-67
2022/08/24 08:11:06;;;;;;;6.17;3.00;;;;;;;22.82;71.13;95649.73;1732299;83;21525;-71
2022/08/24 08:13:35;;;;;;;5.28;3.12;;;;;;;22.86;70.83;95653.09;1731871;83;21504;-71
2022/08/24 08:16:03;;;;;;;5.28;3.20;;;;;;;22.89;70.96;95659.61;1732150;83;21508;-71
2022/08/24 08:18:31;;;;;;;4.83;2.60;;;;;;;22.81;71.31;95666.84;1732211;83;21031;-71
2022/08/24 08:21:01;;;;;;;5.17;3.17;;;;;;;22.61;71.76;95675.36;1705032;83;21038;-71
2022/08/24 08:26:19;;;;;;;5.70;3.08;;;;;;;22.37;72.27;95683.16;1731765;83;21043;-71
2022/08/24 08:28:53;;;;;;;3.60;2.50;;;;;;;22.46;73.22;95683.93;1730400;83;21070;-71
2022/08/24 08:31:19;;;;;;;6.62;2.50;;;;;;;22.77;73.46;95691.35;1732005;83;21007;-71
2022/08/24 08:33:46;;;;;;;7.42;2.80;;;;;;;23.00;71.58;95691.21;1732431;83;21066;-71
2022/08/24 08:36:14;;;;;;;4.12;2.85;;;;;;;23.07;72.03;95689.36;1731604;83;21054;-71
2022/08/24 08:38:43;;;;;;;6.92;2.95;;;;;;;23.01;71.05;95696.99;1731806;83;21021;-71
2022/08/24 08:41:56;;;;;;;5.25;3.15;;;;;;;23.11;71.39;95694.07;1732049;83;21020;-71
2022/08/24 08:44:39;;;;;;;6.22;3.30;;;;;;;23.16;70.78;95693.28;1732109;83;21055;-71
2022/08/24 08:47:51;;;;;;;3.40;3.10;;;;;;;23.19;71.32;95697.11;1732364;83;21023;-71
2022/08/24 08:50:38;;;;;;;4.92;3.52;;;;;;;23.32;70.74;95703.38;1732360;83;20983;-71
2022/08/24 08:53:37;;;;;;;5.83;3.10;;;;;;;23.36;70.24;95709.90;1732235;83;21055;-71
2022/08/24 08:56:47;;;;;;;6.97;3.02;;;;;;;23.25;70.14;95710.14;1699440;83;21012;-71
2022/08/24 09:00:04;;;;;;;11.90;3.17;;;;;;;23.24;70.38;95711.61;1731701;83;21544;-71
2022/08/24 09:03:16;;;;;;;5.10;2.90;;;;;;;23.10;69.95;95713.86;1732268;83;20964;-69
2022/08/24 09:06:11;;;;;;;4.83;3.20;;;;;;;23.15;70.38;95709.03;1729987;83;21023;-71
2022/08/24 09:08:56;;;;;;;4.62;3.05;;;;;;;23.07;70.31;95723.00;1696550;84;21524;-71
2022/08/24 09:11:38;;;;;;;8.18;3.00;;;;;;;23.02;70.53;95723.78;1727062;83;21544;-71
2022/08/24 09:14:32;;;;;;;8.13;3.27;;;;;;;23.06;70.74;95725.32;1732288;82;21023;-71
2022/08/24 09:17:27;;;;;;;7.15;3.22;;;;;;;23.27;69.79;95721.67;1731744;83;21082;-71
2022/08/24 09:20:20;;;;;;;5.83;3.05;;;;;;;23.51;70.05;95717.83;1732219;83;21120;-71
2022/08/24 09:22:51;;;;;;;6.83;2.67;;;;;;;23.62;68.93;95718.92;1732617;83;21003;-71
2022/08/24 09:25:29;;;;;;;4.33;2.65;;;;;;;23.49;69.34;95718.90;1729943;83;21071;-71
2022/08/24 09:28:15;;;;;;;4.35;2.47;;;;;;;23.55;69.10;95717.12;1731684;83;21071;-71
2022/08/24 09:31:15;;;;;;;5.08;2.77;;;;;;;23.58;68.43;95716.91;1732030;82;20999;-71
2022/08/24 09:33:56;;;;;;;4.15;3.10;;;;;;;23.68;68.29;95722.04;1732211;83;21105;-71
2022/08/24 09:36:52;;;;;;;5.17;3.12;;;;;;;23.82;67.77;95714.89;1722593;83;21551;-71
2022/08/24 09:39:41;;;;;;;7.22;3.77;;;;;;;23.84;66.49;95714.27;1731897;83;21007;-71
2022/08/24 09:42:43;;;;;;;4.65;2.77;;;;;;;23.61;66.65;95711.79;1727047;83;21039;-71
2022/08/24 09:45:39;;;;;;;4.60;2.90;;;;;;;23.56;67.62;95706.71;1731582;83;20995;-70
2022/08/24 09:48:45;;;;;;;4.70;3.10;;;;;;;23.44;67.91;95711.13;1731948;83;21019;-70
2022/08/24 09:51:35;;;;;;;3.67;3.17;;;;;;;23.31;68.01;95704.36;1731809;83;21011;-71
2022/08/24 09:54:31;;;;;;;5.78;3.12;;;;;;;23.22;68.17;95709.00;1731976;83;21516;-71
2022/08/24 09:57:21;;;;;;;4.78;2.77;;;;;;;23.19;68.59;95702.48;1732281;83;21050;-71
2022/08/24 10:00:12;;;;;;;12.23;6.30;;;;;;;23.16;68.29;95701.36;1731359;83;21022;-71
2022/08/24 10:03:02;;;;;;;5.50;3.00;;;;;;;23.26;68.13;95696.22;1732266;83;20995;-71
2022/08/24 10:05:47;;;;;;;4.33;3.20;;;;;;;23.43;68.43;95690.53;1732081;82;21601;-71
2022/08/24 10:08:28;;;;;;;7.70;3.00;;;;;;;23.62;68.74;95685.25;1731847;83;21138;-71
2022/08/24 10:11:04;;;;;;;8.90;3.02;;;;;;;23.89;68.44;95672.59;1732049;83;21007;-71
2022/08/24 10:13:57;;;;;;;4.95;3.30;;;;;;;24.42;67.95;95663.00;1730768;83;21054;-71
2022/08/24 10:16:48;;;;;;;5.37;3.55;;;;;;;24.72;66.39;95665.32;1731302;83;21528;-71
2022/08/24 10:19:52;;;;;;;6.62;2.92;;;;;;;24.93;63.27;95670.10;1732084;82;21516;-71
2022/08/24 10:22:55;;;;;;;5.03;2.98;;;;;;;25.04;63.19;95666.95;1732071;82;21079;-71
2022/08/24 10:25:36;;;;;;;5.95;3.05;;;;;;;25.35;64.18;95662.45;1731938;82;21564;-71
2022/08/24 10:28:38;;;;;;;6.25;3.12;;;;;;;25.31;63.48;95660.98;1731755;83;21039;-71
2022/08/24 10:31:24;;;;;;;6.30;3.05;;;;;;;25.22;63.29;95657.13;1732085;83;21039;-71
2022/08/24 10:34:02;;;;;;;5.03;2.55;;;;;;;25.09;62.56;95660.36;1732040;82;21078;-71
2022/08/24 10:36:37;;;;;;;5.90;2.62;;;;;;;25.03;63.52;95652.23;1730658;83;21054;-70
2022/08/24 10:39:41;;;;;;;5.03;3.05;;;;;;;25.04;64.18;95658.00;1731610;83;21054;-71
2022/08/24 10:46:10;;;;;;;6.28;2.98;;;;;;;25.50;63.62;95652.31;1732316;83;21030;-71
2022/08/24 10:49:14;;;;;;;5.03;2.65;;;;;;;25.78;61.45;95650.56;1731990;83;21050;-71
2022/08/24 10:52:20;;;;;;;7.47;2.65;;;;;;;25.99;60.24;95646.69;1732152;83;21026;-71
2022/08/24 10:54:47;;;;;;;5.35;2.98;;;;;;;26.30;61.39;95642.38;1731700;83;21605;-71
2022/08/24 10:57:39;;;;;;;8.48;2.77;;;;;;;26.55;60.19;95643.14;1732246;83;21026;-71
2022/08/24 11:00:14;;;;;;;4.47;2.60;;;;;;;26.64;59.51;95638.34;1732158;83;21015;-71
2022/08/24 11:02:44;;;;;;;6.47;2.80;;;;;;;26.76;57.08;95639.16;1732011;83;21002;-71
2022/08/24 11:05:16;;;;;;;5.85;2.75;;;;;;;26.90;56.47;95636.69;1732096;83;21066;-71
2022/08/24 11:08:00;;;;;;;4.62;2.90;;;;;;;26.88;57.27;95636.80;1732642;82;21066;-72
2022/08/24 11:10:31;;;;;;;6.28;2.52;;;;;;;26.92;57.07;95638.27;1731927;83;21023;-71
2022/08/24 11:13:18;;;;;;;6.65;2.55;;;;;;;26.88;57.07;95641.36;1732028;83;20995;-71
2022/08/24 11:15:54;;;;;;;4.30;2.70;;;;;;;26.82;56.30;95640.52;1698698;83;21580;-71
2022/08/24 11:18:22;;;;;;;6.58;2.90;;;;;;;26.71;56.32;95646.80;1732355;82;20990;-71
2022/08/24 11:20:53;;;;;;;3.70;2.62;;;;;;;26.65;54.58;95643.26;1732591;83;21039;-71
2022/08/24 11:23:31;;;;;;;5.25;3.27;;;;;;;26.73;54.63;95642.13;1732013;82;21051;-71
2022/08/24 11:26:06;;;;;;;6.25;2.70;;;;;;;26.70;55.35;95647.80;1731549;83;21046;-71
2022/08/24 11:28:41;;;;;;;5.03;2.87;;;;;;;27.01;56.66;95648.81;1705546;83;21049;-71
2022/08/24 11:31:29;;;;;;;5.33;3.00;;;;;;;27.12;53.97;95646.09;1705546;83;21004;-71
2022/08/24 11:34:06;;;;;;;5.87;2.45;;;;;;;27.56;55.28;95652.83;1732075;83;21520;-71
2022/08/24 11:36:37;;;;;;;8.05;2.72;;;;;;;27.77;54.62;95648.28;1731984;83;21082;-71
2022/08/24 11:39:35;;;;;;;6.17;2.87;;;;;;;28.02;55.17;95659.72;1732137;83;21523;-71
2022/08/24 11:42:19;;;;;;;5.45;2.87;;;;;;;28.37;54.71;95655.27;1731823;83;20992;-71
2022/08/24 11:45:23;;;;;;;3.52;2.47;;;;;;;28.71;53.30;95658.23;1731838;83;21031;-71
2022/08/24 11:48:11;;;;;;;8.33;2.75;;;;;;;29.03;52.18;95647.14;1705649;83;21043;-71
2022/08/24 11:51:15;;;;;;;3.98;2.27;;;;;;;29.42;51.00;95657.59;1701493;84;21517;-71
2022/08/24 11:54:06;;;;;;;5.53;2.52;;;;;;;29.62;51.00;95650.29;1700791;84;21055;-72
2022/08/24 11:57:05;;;;;;;6.00;2.85;;;;;;;29.43;51.35;95658.44;1700917;84;21039;-71
2022/08/24 11:59:57;;;;;;;5.53;2.65;;;;;;;29.10;51.98;95655.97;1679885;84;21031;-71
2022/08/24 12:02:45;;;;;;;4.90;2.95;;;;;;;28.81;53.77;95655.90;1701606;84;21545;-71
2022/08/24 12:05:23;;;;;;;8.63;3.00;;;;;;;29.08;52.04;95653.92;1700827;84;21023;-71
2022/08/24 12:08:47;;;;;;;6.45;2.60;;;;;;;28.97;52.44;95651.78;1701883;84;21446;-71
2022/08/24 12:11:32;;;;;;;5.87;2.67;;;;;;;28.86;51.83;95652.27;1700903;84;21079;-71
2022/08/24 12:14:10;;;;;;;4.20;3.00;;;;;;;29.49;51.46;95646.50;1701287;84;21043;-71
2022/08/24 12:16:51;;;;;;;7.53;2.65;;;;;;;29.86;50.29;95643.56;1699853;84;21032;-71
2022/08/24 12:19:29;;;;;;;6.95;3.02;;;;;;;30.31;48.92;95649.71;1701548;84;21047;-71